createdAt,value
2019-04-27T00:00:58.997Z,7.10
2019-04-27T00:03:45.034Z,8.23
2019-04-27T00:06:15.185Z,7.53
2019-04-27T00:08:53.531Z,7.23
2019-04-27T00:11:26.293Z,7.90
2019-04-27T00:13:55.289Z,8.00
2019-04-27T00:16:50.815Z,8.20
2019-04-27T00:19:46.981Z,10.53
2019-04-27T00:22:27.229Z,9.85
2019-04-27T00:24:56.313Z,9.53
2019-04-27T00:27:25.472Z,9.85
2019-04-27T00:29:54.540Z,10.03
2019-04-27T00:32:23.697Z,10.65
2019-04-27T00:34:53.293Z,9.65
2019-04-27T00:37:47.261Z,10.78
2019-04-27T00:40:44.737Z,8.95
2019-04-27T00:43:14.109Z,9.38
2019-04-27T00:45:43.742Z,10.43
2019-04-27T00:48:13.461Z,8.57
2019-04-27T00:50:43.868Z,10.32
2019-04-27T00:53:13.496Z,10.72
2019-04-27T00:56:05.491Z,9.93
2019-04-27T00:58:45.492Z,9.60
2019-04-27T01:01:29.210Z,10.82
2019-04-27T01:04:03.757Z,10.00
2019-04-27T01:06:33.622Z,9.53
2019-04-27T01:09:03.523Z,10.80
2019-04-27T01:11:33.277Z,9.55
2019-04-27T01:14:03.902Z,11.10
2019-04-27T01:16:33.094Z,11.10
2019-04-27T01:19:02.159Z,10.20
2019-04-27T01:21:31.240Z,10.28
2019-04-27T01:24:00.557Z,10.80
2019-04-27T01:26:47.820Z,11.28
2019-04-27T01:29:19.347Z,10.98
2019-04-27T01:31:48.739Z,10.65
2019-04-27T01:34:19.234Z,11.38
2019-04-27T01:36:49.298Z,12.50
2019-04-27T01:39:18.932Z,14.68
2019-04-27T01:41:49.157Z,13.72
2019-04-27T01:44:19.424Z,14.43
2019-04-27T01:46:48.775Z,14.90
2019-04-27T01:49:19.379Z,14.30
2019-04-27T01:51:49.251Z,14.57
2019-04-27T01:54:20.041Z,14.83
2019-04-27T01:56:49.342Z,15.55
2019-04-27T01:59:19.891Z,15.83
2019-04-27T02:02:08.762Z,15.20
2019-04-27T02:04:49.416Z,14.73
2019-04-27T02:07:19.177Z,16.52
2019-04-27T02:09:48.719Z,15.10
2019-04-27T02:12:19.181Z,14.93
2019-04-27T02:14:49.115Z,16.20
2019-04-27T02:17:18.788Z,16.05
2019-04-27T02:19:49.409Z,14.53
2019-04-27T02:22:18.837Z,15.38
2019-04-27T02:24:49.237Z,14.73
2019-04-27T02:27:20.437Z,13.50
2019-04-27T02:30:20.478Z,13.98
2019-04-27T02:33:09.814Z,14.73
2019-04-27T02:35:39.111Z,13.18
2019-04-27T02:38:10.046Z,13.98
2019-04-27T02:40:53.886Z,12.05
2019-04-27T02:43:29.372Z,12.93
2019-04-27T02:45:57.507Z,11.63
2019-04-27T02:48:26.513Z,10.30
2019-04-27T02:50:59.917Z,11.50
2019-04-27T02:53:49.821Z,12.00
2019-04-27T02:56:20.256Z,10.15
2019-04-27T02:58:49.781Z,10.43
2019-04-27T03:01:20.101Z,10.63
2019-04-27T03:03:50.491Z,11.55
2019-04-27T03:06:20.053Z,10.33
2019-04-27T03:08:52.919Z,10.65
2019-04-27T03:11:23.013Z,9.28
2019-04-27T03:14:20.486Z,8.68
2019-04-27T03:16:50.371Z,10.50
2019-04-27T03:19:34.125Z,9.13
2019-04-27T03:22:22.276Z,8.13
2019-04-27T03:25:16.564Z,7.50
2019-04-27T03:27:47.110Z,7.67
2019-04-27T03:30:16.578Z,7.22
2019-04-27T03:32:45.695Z,8.10
2019-04-27T03:35:14.754Z,6.58
2019-04-27T03:37:44.325Z,5.97
2019-04-27T03:40:13.973Z,6.75
2019-04-27T03:42:44.943Z,6.10
2019-04-27T03:45:14.117Z,7.08
2019-04-27T03:47:43.202Z,7.25
2019-04-27T03:50:15.195Z,6.78
2019-04-27T03:53:06.400Z,6.28
2019-04-27T03:55:42.208Z,5.83
2019-04-27T03:58:25.935Z,6.62
2019-04-27T04:00:54.993Z,7.22
2019-04-27T04:03:24.461Z,8.03
2019-04-27T04:05:53.513Z,7.70
2019-04-27T04:08:22.666Z,8.28
2019-04-27T04:10:56.469Z,7.47
2019-04-27T04:13:32.774Z,8.20
2019-04-27T04:16:11.758Z,8.33
2019-04-27T04:19:00.749Z,7.80
2019-04-27T04:21:29.942Z,8.00
2019-04-27T04:24:00.976Z,8.60
2019-04-27T04:26:32.835Z,8.20
2019-04-27T04:29:01.094Z,8.75
2019-04-27T04:31:33.090Z,7.65
2019-04-27T04:34:00.911Z,8.83
2019-04-27T04:36:30.304Z,8.25
2019-04-27T04:39:00.422Z,8.68
2019-04-27T04:41:55.301Z,9.08
2019-04-27T04:44:42.378Z,9.73
2019-04-27T04:47:33.611Z,11.55
2019-04-27T04:50:10.697Z,10.10
2019-04-27T04:52:33.551Z,11.38
2019-04-27T04:55:02.976Z,12.00
2019-04-27T04:57:32.090Z,10.78
2019-04-27T05:00:01.190Z,11.80
2019-04-27T05:02:30.317Z,12.65
2019-04-27T05:04:59.516Z,11.93
2019-04-27T05:07:29.731Z,11.25
2019-04-27T05:09:58.921Z,12.43
2019-04-27T05:12:28.793Z,13.60
2019-04-27T05:14:59.053Z,13.72
2019-04-27T05:17:29.641Z,16.42
2019-04-27T05:19:59.258Z,15.70
2019-04-27T05:22:29.611Z,13.75
2019-04-27T05:25:02.121Z,13.30
2019-04-27T05:27:31.846Z,15.68
2019-04-27T05:30:01.512Z,12.93
2019-04-27T05:32:30.581Z,14.03
2019-04-27T05:34:59.741Z,15.55
2019-04-27T05:37:31.583Z,13.88
2019-04-27T05:39:59.628Z,15.13
2019-04-27T05:42:28.757Z,15.50
2019-04-27T05:45:31.125Z,16.67
2019-04-27T05:48:05.785Z,16.50
2019-04-27T05:50:38.069Z,17.98
2019-04-27T05:53:05.651Z,19.83
2019-04-27T05:55:34.697Z,15.28
2019-04-27T05:58:03.777Z,16.73
2019-04-27T06:00:32.917Z,19.62
2019-04-27T06:03:02.010Z,16.67
2019-04-27T06:05:31.093Z,16.93
2019-04-27T06:08:00.168Z,16.77
2019-04-27T06:10:29.659Z,16.60
2019-04-27T06:12:59.842Z,16.32
2019-04-27T06:15:30.158Z,17.27
2019-04-27T06:17:59.697Z,14.15
2019-04-27T06:20:28.933Z,17.40
2019-04-27T06:22:58.881Z,15.83
2019-04-27T06:25:30.521Z,17.23
2019-04-27T06:27:59.328Z,15.23
2019-04-27T06:30:29.268Z,16.75
2019-04-27T06:32:59.446Z,14.78
2019-04-27T06:35:28.909Z,15.13
2019-04-27T06:37:58.618Z,15.10
2019-04-27T06:40:29.041Z,17.10
2019-04-27T06:42:59.600Z,16.35
2019-04-27T06:45:28.786Z,17.25
2019-04-27T06:47:59.584Z,17.35
2019-04-27T06:50:29.591Z,17.62
2019-04-27T06:52:59.117Z,19.40
2019-04-27T06:55:29.146Z,20.43
2019-04-27T06:57:58.922Z,22.58
2019-04-27T07:00:28.918Z,24.23
2019-04-27T07:02:59.675Z,22.37
2019-04-27T07:05:29.050Z,22.85
2019-04-27T07:07:59.060Z,21.60
2019-04-27T07:10:28.696Z,22.10
2019-04-27T07:12:59.566Z,22.10
2019-04-27T07:15:28.954Z,24.67
2019-04-27T07:17:58.590Z,24.10
2019-04-27T07:20:30.313Z,25.88
2019-04-27T07:22:59.523Z,25.00
2019-04-27T07:25:28.948Z,24.05
2019-04-27T07:27:59.222Z,23.95
2019-04-27T07:30:28.891Z,25.45
2019-04-27T07:32:58.708Z,23.22
2019-04-27T07:35:29.580Z,25.27
2019-04-27T07:37:58.967Z,22.83
2019-04-27T07:40:30.175Z,23.75
2019-04-27T07:43:05.670Z,24.05
2019-04-27T07:45:37.226Z,23.45
2019-04-27T07:48:06.302Z,24.92
2019-04-27T07:50:35.522Z,26.57
2019-04-27T07:53:04.602Z,26.93
2019-04-27T07:55:33.676Z,27.77
2019-04-27T07:58:05.054Z,25.48
2019-04-27T08:00:33.720Z,26.37
2019-04-27T08:03:02.786Z,28.25
2019-04-27T08:05:31.885Z,30.45
2019-04-27T08:08:00.993Z,26.85
2019-04-27T08:10:30.190Z,26.55
2019-04-27T08:12:59.839Z,25.48
2019-04-27T08:15:29.219Z,28.80
2019-04-27T08:17:59.207Z,27.37
2019-04-27T08:20:29.405Z,28.25
2019-04-27T08:22:59.850Z,30.55
2019-04-27T08:25:30.840Z,31.05
2019-04-27T08:28:05.869Z,26.57
2019-04-27T08:30:48.917Z,31.85
2019-04-27T08:33:19.042Z,30.33
2019-04-27T08:35:49.062Z,30.55
2019-04-27T08:38:19.051Z,30.00
2019-04-27T08:40:49.506Z,31.48
2019-04-27T08:43:19.119Z,28.35
2019-04-27T08:45:48.912Z,29.37
2019-04-27T08:48:31.463Z,32.33
2019-04-27T08:50:48.945Z,31.03
2019-04-27T08:53:18.627Z,33.18
2019-04-27T08:55:49.620Z,29.93
2019-04-27T08:58:21.091Z,31.90
2019-04-27T09:00:49.512Z,31.40
2019-04-27T09:03:19.378Z,32.48
2019-04-27T09:05:49.037Z,30.43
2019-04-27T09:08:42.351Z,30.95
2019-04-27T09:11:26.093Z,30.35
2019-04-27T09:14:11.617Z,27.73
2019-04-27T09:17:02.797Z,28.17
2019-04-27T09:19:39.254Z,26.70
2019-04-27T09:22:15.861Z,27.13
2019-04-27T09:24:39.709Z,24.70
2019-04-27T09:27:09.571Z,25.90
2019-04-27T09:29:39.501Z,19.43
2019-04-27T09:32:08.977Z,18.70
2019-04-27T09:34:38.250Z,22.40
2019-04-27T09:37:07.328Z,27.32
2019-04-27T09:39:36.400Z,22.98
2019-04-27T09:42:06.532Z,23.75
2019-04-27T09:44:37.056Z,18.73
2019-04-27T09:47:06.467Z,17.48
2019-04-27T09:49:36.671Z,16.37
2019-04-27T09:52:06.496Z,19.80
2019-04-27T09:54:36.506Z,16.97
2019-04-27T09:57:06.915Z,18.70
2019-04-27T09:59:37.726Z,20.55
2019-04-27T10:02:08.608Z,16.10
2019-04-27T10:04:37.963Z,19.50
2019-04-27T10:07:07.060Z,16.73
2019-04-27T10:09:36.825Z,15.10
2019-04-27T10:12:07.416Z,16.80
2019-04-27T10:14:36.834Z,16.75
2019-04-27T10:17:05.923Z,17.32
2019-04-27T10:19:36.595Z,18.98
2019-04-27T10:22:06.032Z,16.80
2019-04-27T10:24:35.829Z,20.30
2019-04-27T10:27:07.785Z,17.00
2019-04-27T10:29:36.541Z,17.90
2019-04-27T10:32:06.238Z,17.35
2019-04-27T10:34:35.678Z,17.12
2019-04-27T10:37:06.072Z,18.77
2019-04-27T10:39:36.104Z,17.50
2019-04-27T10:42:06.743Z,16.02
2019-04-27T10:44:36.264Z,21.02
2019-04-27T10:47:05.857Z,16.77
2019-04-27T10:49:35.309Z,18.50
2019-04-27T10:52:07.521Z,15.72
2019-04-27T10:54:36.775Z,16.30
2019-04-27T10:57:06.211Z,15.93
2019-04-27T10:59:36.075Z,16.40
2019-04-27T11:02:05.310Z,14.80
2019-04-27T11:04:53.427Z,14.98
2019-04-27T11:07:26.007Z,12.70
2019-04-27T11:09:55.214Z,16.30
2019-04-27T11:12:24.669Z,13.80
2019-04-27T11:14:53.826Z,16.15
2019-04-27T11:17:22.934Z,11.53
2019-04-27T11:19:52.082Z,11.40
2019-04-27T11:22:21.189Z,15.72
2019-04-27T11:24:50.273Z,14.75
2019-04-27T11:27:19.460Z,13.03
2019-04-27T11:29:48.629Z,12.20
2019-04-27T11:32:17.737Z,11.75
2019-04-27T11:35:21.401Z,11.15
2019-04-27T11:37:51.121Z,13.10
2019-04-27T11:40:21.351Z,14.68
2019-04-27T11:42:50.402Z,12.85
2019-04-27T11:45:19.863Z,11.05
2019-04-27T11:47:48.986Z,12.90
2019-04-27T11:50:19.144Z,10.38
2019-04-27T11:52:48.272Z,12.13
2019-04-27T11:55:17.791Z,12.03
2019-04-27T11:57:47.120Z,12.45
2019-04-27T12:00:20.417Z,12.63
2019-04-27T12:02:49.474Z,12.03
2019-04-27T12:05:18.753Z,13.38
2019-04-27T12:07:48.013Z,12.40
2019-04-27T12:10:18.073Z,11.22
2019-04-27T12:12:47.134Z,9.95
2019-04-27T12:15:17.231Z,9.33
2019-04-27T12:17:46.333Z,9.13
2019-04-27T12:20:17.853Z,10.43
2019-04-27T12:22:46.575Z,10.43
2019-04-27T12:25:16.614Z,10.15
2019-04-27T12:28:10.792Z,10.63
2019-04-27T12:30:57.529Z,9.78
2019-04-27T12:33:27.752Z,9.28
2019-04-27T12:35:57.066Z,11.50
2019-04-27T12:38:26.378Z,11.00
2019-04-27T12:40:57.231Z,10.85
2019-04-27T12:43:26.322Z,11.55
2019-04-27T12:45:55.957Z,11.78
2019-04-27T12:48:25.165Z,9.15
2019-04-27T12:50:54.265Z,8.60
2019-04-27T12:53:57.445Z,9.28
2019-04-27T12:56:45.890Z,13.38
2019-04-27T12:59:34.167Z,9.75
2019-04-27T13:02:03.438Z,8.67
2019-04-27T13:04:32.505Z,10.15
2019-04-27T13:07:01.589Z,8.50
2019-04-27T13:09:30.666Z,8.58
2019-04-27T13:11:59.705Z,10.20
2019-04-27T13:14:28.785Z,10.60
2019-04-27T13:16:57.828Z,9.33
2019-04-27T13:19:26.913Z,8.68
2019-04-27T13:21:56.004Z,9.90
2019-04-27T13:24:26.108Z,8.05
2019-04-27T13:26:56.028Z,9.20
2019-04-27T13:29:25.637Z,8.70
2019-04-27T13:31:55.721Z,11.05
2019-04-27T13:34:25.738Z,10.05
2019-04-27T13:36:56.131Z,9.78
2019-04-27T13:39:25.795Z,8.60
2019-04-27T13:41:56.308Z,9.30
2019-04-27T13:44:26.245Z,10.47
2019-04-27T13:47:13.486Z,9.33
2019-04-27T13:49:47.710Z,8.53
2019-04-27T13:52:19.599Z,8.20
2019-04-27T13:54:48.673Z,11.83
2019-04-27T13:57:18.415Z,9.63
2019-04-27T13:59:47.629Z,8.23
2019-04-27T14:02:16.753Z,8.08
2019-04-27T14:04:45.873Z,9.90
2019-04-27T14:07:14.949Z,9.48
2019-04-27T14:09:44.057Z,8.38
2019-04-27T14:12:21.305Z,8.03
2019-04-27T14:14:50.318Z,9.63
2019-04-27T14:17:19.545Z,8.28
2019-04-27T14:19:48.807Z,11.67
2019-04-27T14:22:18.270Z,9.17
2019-04-27T14:24:48.717Z,8.30
2019-04-27T14:27:19.236Z,7.47
2019-04-27T14:29:48.966Z,7.92
2019-04-27T14:32:18.750Z,8.35
2019-04-27T14:34:50.111Z,11.93
2019-04-27T14:37:18.769Z,9.45
2019-04-27T14:39:48.120Z,8.65
2019-04-27T14:42:19.000Z,8.25
2019-04-27T14:44:48.948Z,9.70
2019-04-27T14:47:18.803Z,6.92
2019-04-27T14:49:49.076Z,10.03
2019-04-27T14:52:18.873Z,11.18
2019-04-27T14:54:50.704Z,6.83
2019-04-27T14:57:20.442Z,8.48
2019-04-27T14:59:49.971Z,6.53
2019-04-27T15:02:19.388Z,6.45
2019-04-27T15:04:48.465Z,7.65
2019-04-27T15:07:17.545Z,6.62
2019-04-27T15:09:49.547Z,6.85
2019-04-27T15:12:18.694Z,7.22
2019-04-27T15:14:53.344Z,5.90
2019-04-27T15:17:25.581Z,6.87
2019-04-27T15:19:58.574Z,7.75
2019-04-27T15:22:30.610Z,5.35
2019-04-27T15:25:10.859Z,6.12
2019-04-27T15:27:37.540Z,5.17
2019-04-27T15:30:11.408Z,4.50
2019-04-27T15:33:00.380Z,5.35
2019-04-27T15:35:40.577Z,6.08
2019-04-27T15:38:14.080Z,4.93
2019-04-27T15:41:02.373Z,7.05
2019-04-27T15:43:34.057Z,8.88
2019-04-27T15:46:03.123Z,4.65
2019-04-27T15:48:34.027Z,5.27
2019-04-27T15:51:09.101Z,5.40
2019-04-27T15:53:34.718Z,7.10
2019-04-27T15:56:03.916Z,5.53
2019-04-27T15:58:33.378Z,5.70
2019-04-27T16:01:06.701Z,5.33
2019-04-27T16:03:33.898Z,6.70
2019-04-27T16:06:07.077Z,6.67
2019-04-27T16:08:38.254Z,5.35
2019-04-27T16:11:05.129Z,6.20
2019-04-27T16:13:34.253Z,7.20
2019-04-27T16:16:03.557Z,6.35
2019-04-27T16:18:32.773Z,8.63
2019-04-27T16:21:02.912Z,8.88
2019-04-27T16:23:33.683Z,7.78
2019-04-27T16:26:05.140Z,5.13
2019-04-27T16:28:34.482Z,7.35
2019-04-27T16:31:03.693Z,6.87
2019-04-27T16:33:32.899Z,5.83
2019-04-27T16:36:06.908Z,7.78
2019-04-27T16:38:52.009Z,6.70
2019-04-27T16:41:21.159Z,6.70
2019-04-27T16:43:50.290Z,5.05
2019-04-27T16:46:21.336Z,5.20
2019-04-27T16:48:50.341Z,7.92
2019-04-27T16:51:19.488Z,9.05
2019-04-27T16:53:48.872Z,6.20
2019-04-27T16:56:20.439Z,6.05
2019-04-27T16:58:56.274Z,5.87
2019-04-27T17:01:28.652Z,6.47
2019-04-27T17:03:59.357Z,5.73
2019-04-27T17:06:29.663Z,5.95
2019-04-27T17:09:05.422Z,6.37
2019-04-27T17:11:29.961Z,6.00
2019-04-27T17:14:11.763Z,6.20
2019-04-27T17:17:03.648Z,6.10
2019-04-27T17:19:38.820Z,6.60
2019-04-27T17:22:05.088Z,4.70
2019-04-27T17:24:41.855Z,6.00
2019-04-27T17:27:11.056Z,9.33
2019-04-27T17:29:40.162Z,7.28
2019-04-27T17:32:12.421Z,8.40
2019-04-27T17:34:42.020Z,5.42
2019-04-27T17:37:11.200Z,8.43
2019-04-27T17:39:43.160Z,7.65
2019-04-27T17:42:12.389Z,5.80
2019-04-27T17:44:41.640Z,7.47
2019-04-27T17:47:10.917Z,7.40
2019-04-27T17:49:40.001Z,6.35
2019-04-27T17:52:13.008Z,6.97
2019-04-27T17:54:40.843Z,6.72
2019-04-27T17:57:13.504Z,7.85
2019-04-27T17:59:41.870Z,7.57
2019-04-27T18:02:11.023Z,7.08
2019-04-27T18:04:41.010Z,5.55
2019-04-27T18:07:10.393Z,6.90
2019-04-27T18:09:43.298Z,6.75
2019-04-27T18:12:14.677Z,8.00
2019-04-27T18:14:41.397Z,7.97
2019-04-27T18:17:12.177Z,6.37
2019-04-27T18:19:49.321Z,6.83
2019-04-27T18:22:19.904Z,7.92
2019-04-27T18:25:14.213Z,9.95
2019-04-27T18:28:15.098Z,8.20
2019-04-27T18:31:01.318Z,5.08
2019-04-27T18:33:32.550Z,6.22
2019-04-27T18:36:05.450Z,9.70
2019-04-27T18:38:35.465Z,5.78
2019-04-27T18:41:08.047Z,6.58
2019-04-27T18:43:34.373Z,7.17
2019-04-27T18:46:03.498Z,12.57
2019-04-27T18:48:54.656Z,7.08
2019-04-27T18:51:31.657Z,7.20
2019-04-27T18:54:03.553Z,9.65
2019-04-27T18:56:33.477Z,10.43
2019-04-27T18:59:02.313Z,6.62
2019-04-27T19:01:31.390Z,7.60
2019-04-27T19:04:00.549Z,6.57
2019-04-27T19:06:29.764Z,9.43
2019-04-27T19:08:59.161Z,10.18
2019-04-27T19:11:29.078Z,7.42
2019-04-27T19:13:59.083Z,7.42
2019-04-27T19:16:29.157Z,8.05
2019-04-27T19:18:58.561Z,8.98
2019-04-27T19:21:28.863Z,9.37
2019-04-27T19:23:58.573Z,8.03
2019-04-27T19:26:45.762Z,9.53
2019-04-27T19:29:18.932Z,7.00
2019-04-27T19:31:58.546Z,4.22
2019-04-27T19:34:28.600Z,2.77
2019-04-27T19:36:59.217Z,4.00
2019-04-27T19:39:28.721Z,3.33
2019-04-27T19:42:03.480Z,2.72
2019-04-27T19:44:29.330Z,3.33
2019-04-27T19:47:00.199Z,2.57
2019-04-27T19:49:31.756Z,3.67
2019-04-27T19:52:00.414Z,4.00
2019-04-27T19:54:30.246Z,7.33
2019-04-27T19:56:59.757Z,2.67
2019-04-27T19:59:33.645Z,4.95
2019-04-27T20:02:08.642Z,3.52
2019-04-27T20:04:39.322Z,1.90
2019-04-27T20:07:10.400Z,2.00
2019-04-27T20:10:00.552Z,2.55
2019-04-27T20:12:31.349Z,2.25
2019-04-27T20:15:02.307Z,3.12
2019-04-27T20:17:32.225Z,2.35
2019-04-27T20:20:01.919Z,2.55
2019-04-27T20:22:31.076Z,2.70
2019-04-27T20:25:01.863Z,2.30
2019-04-27T20:27:45.343Z,2.33
2019-04-27T20:30:03.058Z,3.25
2019-04-27T20:32:32.605Z,2.62
2019-04-27T20:35:01.737Z,3.12
2019-04-27T20:37:31.407Z,2.45
2019-04-27T20:40:01.598Z,3.12
2019-04-27T20:42:31.554Z,3.58
2019-04-27T20:45:02.014Z,3.15
2019-04-27T20:47:32.273Z,2.87
2019-04-27T20:50:01.493Z,2.50
2019-04-27T20:52:49.930Z,3.70
2019-04-27T20:55:19.117Z,2.60
2019-04-27T20:57:58.786Z,2.70
2019-04-27T21:00:21.962Z,2.60
2019-04-27T21:03:19.197Z,4.95
2019-04-27T21:06:05.147Z,3.60
2019-04-27T21:08:35.843Z,3.52
2019-04-27T21:11:04.943Z,4.63
2019-04-27T21:13:33.999Z,3.15
2019-04-27T21:16:03.081Z,3.52
2019-04-27T21:18:32.169Z,4.58
2019-04-27T21:21:01.394Z,3.27
2019-04-27T21:23:31.231Z,2.33
2019-04-27T21:26:02.072Z,5.85
2019-04-27T21:28:32.161Z,3.67
2019-04-27T21:31:01.289Z,4.90
2019-04-27T21:33:31.797Z,2.77
2019-04-27T21:36:01.431Z,3.90
2019-04-27T21:38:30.705Z,3.55
2019-04-27T21:40:59.901Z,3.58
2019-04-27T21:43:29.034Z,4.15
2019-04-27T21:45:58.294Z,3.62
2019-04-27T21:48:27.417Z,3.43
2019-04-27T21:50:56.494Z,2.52
2019-04-27T21:53:53.671Z,3.50
2019-04-27T21:56:22.827Z,3.65
2019-04-27T21:58:51.950Z,3.80
2019-04-27T22:01:41.538Z,2.75
2019-04-27T22:04:11.385Z,5.42
2019-04-27T22:06:44.222Z,3.15
2019-04-27T22:09:15.085Z,4.03
2019-04-27T22:11:44.188Z,3.87
2019-04-27T22:14:13.265Z,3.47
2019-04-27T22:16:42.397Z,4.10
2019-04-27T22:19:12.106Z,4.45
2019-04-27T22:21:41.927Z,3.27
2019-04-27T22:24:22.945Z,7.10
2019-04-27T22:26:52.069Z,2.87
2019-04-27T22:29:22.183Z,4.05
2019-04-27T22:31:51.754Z,3.92
2019-04-27T22:34:21.766Z,3.62
2019-04-27T22:36:50.839Z,3.40
2019-04-27T22:39:42.124Z,3.75
2019-04-27T22:42:26.738Z,2.90
2019-04-27T22:45:18.562Z,5.00
2019-04-27T22:47:47.694Z,3.50
2019-04-27T22:50:17.083Z,2.98
2019-04-27T22:52:46.382Z,3.83
2019-04-27T22:55:15.479Z,3.20
2019-04-27T22:57:51.604Z,5.00
2019-04-27T23:00:38.597Z,3.00
2019-04-27T23:03:11.010Z,4.08
2019-04-27T23:05:40.517Z,3.85
2019-04-27T23:08:10.990Z,3.52
2019-04-27T23:10:40.102Z,7.58
2019-04-27T23:13:10.791Z,3.43
2019-04-27T23:15:43.667Z,4.97
2019-04-27T23:18:13.157Z,5.03
2019-04-27T23:20:42.558Z,3.75
2019-04-27T23:23:11.830Z,3.55
2019-04-27T23:25:42.676Z,3.15
2019-04-27T23:28:11.714Z,6.17
2019-04-27T23:31:12.022Z,4.95
2019-04-27T23:33:43.588Z,3.85
2019-04-27T23:36:12.670Z,3.50
2019-04-27T23:38:41.741Z,4.22
2019-04-27T23:41:11.600Z,3.90
2019-04-27T23:43:40.839Z,5.17
2019-04-27T23:46:11.507Z,3.98
2019-04-27T23:48:41.981Z,4.77
2019-04-27T23:51:39.642Z,5.58
2019-04-27T23:54:08.777Z,3.83
2019-04-27T23:56:37.754Z,5.40
2019-04-27T23:59:06.826Z,4.35
